Time;durP1;ratioP1;P1;durP2;ratioP2;P2;SDS_P1;SDS_P2;PMS_P1;PMS_P2;Temp;Humidity;BMP_temperature;BMP_pressure;BME280_temperature;BME280_humidity;BME280_pressure;Samples;Min_cycle;Max_cycle;Signal;HPM_P1;HPM_P2
2021/06/02 00:00:51;;;;;;;2.50;2.33;;;14.40;70.70;;;;;;5033216;28;20478;-81
2021/06/02 00:03:25;;;;;;;2.40;2.20;;;14.30;70.30;;;;;;5032949;28;20454;-81
2021/06/02 00:05:55;;;;;;;2.10;1.90;;;14.20;71.40;;;;;;5033373;28;20491;-81
2021/06/02 00:08:24;;;;;;;2.10;2.00;;;14.10;71.80;;;;;;5033523;28;20756;-82
2021/06/02 00:10:52;;;;;;;2.50;2.30;;;14.10;72.50;;;;;;5033197;28;20473;-80
2021/06/02 00:13:19;;;;;;;2.50;2.20;;;14.00;72.90;;;;;;5033419;28;20451;-80
2021/06/02 00:15:49;;;;;;;2.00;1.90;;;13.90;72.80;;;;;;5032757;28;20505;-80
2021/06/02 00:18:15;;;;;;;2.20;2.10;;;13.80;74.20;;;;;;5033110;28;20450;-80
2021/06/02 00:20:42;;;;;;;1.93;1.83;;;13.70;74.20;;;;;;5032803;28;21006;-80
2021/06/02 00:23:10;;;;;;;4.10;2.47;;;13.70;75.30;;;;;;5033093;28;20450;-80
2021/06/02 00:25:36;;;;;;;2.23;2.13;;;13.60;74.70;;;;;;5033114;28;20466;-80
2021/06/02 00:28:03;;;;;;;2.23;1.90;;;13.50;74.80;;;;;;5033067;28;20455;-80
2021/06/02 00:30:29;;;;;;;2.17;2.07;;;13.50;75.20;;;;;;5032976;28;20466;-80
2021/06/02 00:32:58;;;;;;;2.53;2.30;;;13.40;75.90;;;;;;5033004;28;20454;-80
2021/06/02 00:35:26;;;;;;;2.27;2.07;;;13.40;76.70;;;;;;5032881;28;20474;-80
2021/06/02 00:37:52;;;;;;;2.70;2.17;;;13.30;76.90;;;;;;5032736;28;20895;-80
2021/06/02 00:40:30;;;;;;;2.00;1.90;;;13.30;76.60;;;;;;5032882;28;20465;-80
2021/06/02 00:42:57;;;;;;;2.00;1.90;;;13.30;76.60;;;;;;5032964;28;20434;-80
2021/06/02 00:45:24;;;;;;;2.80;2.60;;;13.20;78.10;;;;;;5032598;28;20969;-80
2021/06/02 00:47:50;;;;;;;2.43;2.33;;;13.20;78.90;;;;;;5032929;28;20504;-80
2021/06/02 00:50:18;;;;;;;2.60;2.40;;;13.20;78.70;;;;;;5032838;28;20482;-80
2021/06/02 00:52:44;;;;;;;2.80;2.60;;;13.10;78.60;;;;;;5032829;28;20450;-80
2021/06/02 00:55:11;;;;;;;2.90;2.70;;;13.10;80.60;;;;;;5032549;28;20475;-80
2021/06/02 00:57:43;;;;;;;2.73;2.53;;;13.00;80.60;;;;;;5032832;28;20484;-80
2021/06/02 01:00:12;;;;;;;4.60;2.93;;;13.00;80.90;;;;;;5033938;28;20435;-80
2021/06/02 01:02:41;;;;;;;3.07;2.53;;;12.90;80.20;;;;;;5036276;28;20466;-80
2021/06/02 01:05:09;;;;;;;3.60;3.30;;;12.90;81.30;;;;;;5036315;28;20457;-80
2021/06/02 01:07:38;;;;;;;3.23;3.00;;;12.90;81.60;;;;;;5037056;28;20447;-80
2021/06/02 01:10:05;;;;;;;3.33;3.13;;;12.90;81.90;;;;;;5035959;28;20498;-80
2021/06/02 01:12:32;;;;;;;2.93;2.13;;;12.90;83.20;;;;;;5036085;28;20451;-80
2021/06/02 01:14:59;;;;;;;3.00;2.80;;;12.90;83.40;;;;;;5035765;28;20982;-80
2021/06/02 01:17:28;;;;;;;2.10;2.00;;;12.80;83.50;;;;;;5035656;28;21031;-80
2021/06/02 01:19:58;;;;;;;1.90;1.80;;;12.80;83.50;;;;;;5036096;28;20435;-80
2021/06/02 01:22:28;;;;;;;2.07;1.97;;;12.80;84.10;;;;;;5036258;28;20545;-80
2021/06/02 01:24:55;;;;;;;3.33;2.50;;;12.80;83.90;;;;;;5036012;28;20474;-80
2021/06/02 01:27:21;;;;;;;3.93;2.30;;;12.70;84.60;;;;;;5036665;28;20500;-80
2021/06/02 01:29:50;;;;;;;2.50;2.40;;;12.70;84.30;;;;;;5035979;28;20422;-80
2021/06/02 01:32:46;;;;;;;3.07;2.77;;;12.70;86.00;;;;;;5035631;28;20818;-80
2021/06/02 01:35:40;;;;;;;3.00;2.80;;;12.60;87.10;;;;;;5035830;28;20435;-80
2021/06/02 01:38:36;;;;;;;2.70;2.50;;;12.60;87.90;;;;;;5035786;28;20450;-80
2021/06/02 01:41:21;;;;;;;3.40;3.10;;;12.50;89.10;;;;;;5035633;28;20989;-80
2021/06/02 01:44:27;;;;;;;2.80;2.60;;;12.40;90.50;;;;;;5035567;28;20439;-80
2021/06/02 01:47:17;;;;;;;3.03;2.80;;;12.40;90.60;;;;;;5035637;28;20630;-80
2021/06/02 01:50:01;;;;;;;2.93;2.73;;;12.30;90.80;;;;;;5035596;28;20461;-80
2021/06/02 01:53:06;;;;;;;4.30;3.20;;;12.30;91.60;;;;;;5036143;28;20420;-80
2021/06/02 01:56:10;;;;;;;3.10;2.90;;;12.20;92.50;;;;;;5035035;28;20486;-80
2021/06/02 01:59:10;;;;;;;2.47;2.33;;;12.20;92.90;;;;;;5022610;28;20443;-79
2021/06/02 02:02:00;;;;;;;3.80;2.60;;;12.10;92.60;;;;;;5034949;28;21071;-78
2021/06/02 02:05:02;;;;;;;2.60;2.50;;;12.00;92.90;;;;;;5035146;28;20483;-78
2021/06/02 02:07:52;;;;;;;2.40;2.23;;;12.00;93.80;;;;;;5034957;28;20438;-78
2021/06/02 02:10:37;;;;;;;2.43;2.23;;;12.00;93.10;;;;;;5035063;28;20986;-78
2021/06/02 02:13:31;;;;;;;2.50;1.90;;;12.00;93.40;;;;;;5034271;28;20907;-78
2021/06/02 02:16:17;;;;;;;4.63;2.50;;;12.00;94.40;;;;;;5034593;28;20568;-78
2021/06/02 02:18:51;;;;;;;2.00;1.90;;;12.00;94.10;;;;;;5034982;28;20439;-78
2021/06/02 02:21:31;;;;;;;2.47;2.30;;;11.90;94.60;;;;;;5034874;28;20475;-78
2021/06/02 02:24:08;;;;;;;1.67;1.57;;;11.90;94.50;;;;;;5034952;28;20488;-78
2021/06/02 02:26:40;;;;;;;2.13;1.93;;;11.90;95.30;;;;;;5034677;28;20922;-78
2021/06/02 02:29:22;;;;;;;1.90;1.80;;;11.90;95.50;;;;;;5034977;28;20427;-78
2021/06/02 02:32:03;;;;;;;2.10;2.00;;;11.90;94.40;;;;;;5034661;28;20475;-78
2021/06/02 02:34:53;;;;;;;2.10;2.00;;;11.90;94.70;;;;;;5034719;28;20426;-78
2021/06/02 02:37:30;;;;;;;2.23;2.10;;;11.90;93.50;;;;;;5034844;28;20556;-78
2021/06/02 02:40:02;;;;;;;1.87;1.77;;;11.90;93.20;;;;;;5034815;28;20426;-78
2021/06/02 02:42:40;;;;;;;1.60;1.50;;;12.00;92.80;;;;;;5034366;28;20875;-79
2021/06/02 02:45:20;;;;;;;2.13;2.03;;;12.00;93.10;;;;;;5034186;28;20903;-78
2021/06/02 02:48:09;;;;;;;2.50;2.00;;;12.00;93.60;;;;;;5034447;28;20435;-78
2021/06/02 02:50:44;;;;;;;2.23;2.13;;;11.90;94.30;;;;;;5034556;28;20551;-78
2021/06/02 02:53:15;;;;;;;2.10;2.00;;;11.90;94.60;;;;;;5034090;28;20415;-78
2021/06/02 02:55:41;;;;;;;1.73;1.63;;;11.80;95.30;;;;;;5034302;28;20470;-78
2021/06/02 02:58:16;;;;;;;2.23;2.03;;;11.80;95.70;;;;;;5034210;28;20509;-78
2021/06/02 03:00:47;;;;;;;1.70;1.60;;;11.80;96.60;;;;;;5033935;28;20461;-78
2021/06/02 03:03:19;;;;;;;3.37;2.33;;;11.70;96.30;;;;;;5034988;28;20768;-78
2021/06/02 03:05:53;;;;;;;3.07;1.90;;;11.70;96.30;;;;;;5033791;28;20911;-78
2021/06/02 03:08:27;;;;;;;2.00;1.90;;;11.60;97.40;;;;;;5034063;28;20430;-78
2021/06/02 03:11:01;;;;;;;2.27;2.10;;;11.60;97.00;;;;;;5033735;28;20459;-78
2021/06/02 03:13:32;;;;;;;2.47;2.33;;;11.60;98.20;;;;;;5033626;28;20914;-78
2021/06/02 03:16:08;;;;;;;3.90;2.50;;;11.50;99.00;;;;;;5033479;28;20533;-78
2021/06/02 03:18:40;;;;;;;2.17;2.07;;;11.50;98.80;;;;;;5033605;28;20439;-79
2021/06/02 03:21:23;;;;;;;2.07;1.93;;;11.40;98.50;;;;;;5033631;28;20478;-79
2021/06/02 03:24:15;;;;;;;2.70;2.40;;;11.40;98.50;;;;;;5032797;28;20914;-78
2021/06/02 03:26:47;;;;;;;2.27;2.17;;;11.40;98.70;;;;;;5033817;28;20431;-78
2021/06/02 03:29:25;;;;;;;2.40;2.13;;;11.40;99.70;;;;;;5033777;28;20434;-78
2021/06/02 03:32:12;;;;;;;4.63;2.13;;;11.40;99.90;;;;;;5033612;28;20478;-79
2021/06/02 03:34:46;;;;;;;2.67;2.20;;;11.30;99.90;;;;;;5034114;28;20459;-78
2021/06/02 03:37:27;;;;;;;2.20;2.10;;;11.30;99.90;;;;;;5033552;28;20494;-78
2021/06/02 03:40:03;;;;;;;2.30;2.20;;;11.30;99.90;;;;;;5033591;28;20439;-78
2021/06/02 03:42:42;;;;;;;2.97;2.30;;;11.20;99.90;;;;;;5033605;28;20441;-78
2021/06/02 03:45:19;;;;;;;2.50;2.30;;;11.20;99.90;;;;;;5033624;28;20427;-78
2021/06/02 03:47:53;;;;;;;2.00;1.90;;;11.20;99.90;;;;;;5031801;28;20419;-78
2021/06/02 03:50:25;;;;;;;2.23;2.13;;;11.20;99.90;;;;;;5032667;28;20471;-78
2021/06/02 03:53:05;;;;;;;2.83;2.53;;;11.30;99.90;;;;;;5033217;28;20458;-78
2021/06/02 03:55:34;;;;;;;3.10;2.40;;;11.30;99.90;;;;;;5033088;28;21039;-78
2021/06/02 03:58:10;;;;;;;2.57;2.27;;;11.30;99.90;;;;;;5033320;28;20455;-78
2021/06/02 04:00:38;;;;;;;2.40;2.20;;;11.40;99.90;;;;;;5033306;28;20528;-78
2021/06/02 04:03:12;;;;;;;2.33;2.13;;;11.40;99.90;;;;;;5033300;28;20446;-78
2021/06/02 04:05:49;;;;;;;4.07;3.07;;;11.40;99.90;;;;;;5032963;28;20845;-78
2021/06/02 04:08:22;;;;;;;3.27;2.93;;;11.50;99.90;;;;;;5033287;28;20438;-78
2021/06/02 04:11:10;;;;;;;2.83;2.63;;;11.50;99.90;;;;;;5033200;28;20474;-78
2021/06/02 04:13:49;;;;;;;3.20;2.90;;;11.50;99.90;;;;;;5033254;28;20438;-78
2021/06/02 04:16:22;;;;;;;3.10;2.90;;;11.50;99.90;;;;;;5032609;28;20501;-78
2021/06/02 04:18:51;;;;;;;3.80;3.50;;;11.60;99.90;;;;;;5033406;28;20437;-78
2021/06/02 04:21:19;;;;;;;3.20;2.90;;;11.60;99.90;;;;;;5033103;28;20517;-78
2021/06/02 04:23:47;;;;;;;5.43;3.40;;;11.60;99.90;;;;;;5033075;28;20451;-78
2021/06/02 04:26:14;;;;;;;3.33;3.03;;;11.60;99.90;;;;;;5033059;28;20457;-78
2021/06/02 04:28:40;;;;;;;4.20;3.90;;;11.70;99.90;;;;;;5033017;28;20451;-78
2021/06/02 04:31:09;;;;;;;2.97;2.73;;;11.70;99.90;;;;;;5032717;28;20977;-78
2021/06/02 04:33:36;;;;;;;3.30;3.10;;;11.70;99.90;;;;;;5033010;28;20459;-78
2021/06/02 04:36:05;;;;;;;3.43;3.13;;;11.80;99.90;;;;;;5035295;28;21032;-78
2021/06/02 04:38:32;;;;;;;4.87;3.30;;;11.80;99.90;;;;;;5036545;28;20446;-78
2021/06/02 04:41:00;;;;;;;2.43;2.23;;;11.90;99.90;;;;;;5036753;28;20467;-78
2021/06/02 04:43:26;;;;;;;3.63;3.00;;;11.90;99.90;;;;;;5036487;28;20850;-78
2021/06/02 04:45:58;;;;;;;4.53;3.50;;;11.90;99.90;;;;;;5036471;28;20434;-78
2021/06/02 04:48:25;;;;;;;3.83;3.43;;;12.00;99.90;;;;;;5037421;28;20451;-78
2021/06/02 04:51:03;;;;;;;3.87;3.57;;;12.00;99.90;;;;;;5036238;28;20977;-78
2021/06/02 04:54:08;;;;;;;4.07;3.70;;;12.10;99.90;;;;;;5036646;28;20902;-78
2021/06/02 04:57:14;;;;;;;3.73;3.50;;;12.10;99.90;;;;;;5036930;28;20493;-78
2021/06/02 05:00:16;;;;;;;4.37;3.80;;;12.10;99.90;;;;;;5036148;28;20860;-79
2021/06/02 05:03:18;;;;;;;3.57;3.27;;;12.10;99.90;;;;;;5036844;28;20458;-79
2021/06/02 05:06:08;;;;;;;3.70;3.50;;;12.20;99.90;;;;;;4975432;28;20441;-79
2021/06/02 05:09:19;;;;;;;5.07;4.57;;;12.20;99.90;;;;;;5034086;28;20442;-79
2021/06/02 05:12:36;;;;;;;4.53;3.67;;;12.20;99.90;;;;;;5036174;28;20466;-79
2021/06/02 05:15:44;;;;;;;3.87;3.57;;;12.30;99.90;;;;;;5035921;28;20467;-79
2021/06/02 05:18:34;;;;;;;5.87;3.97;;;12.50;99.90;;;;;;5036110;28;20442;-79
2021/06/02 05:24:58;;;;;;;3.93;3.60;;;12.70;99.90;;;;;;5022022;28;20430;-79
2021/06/02 05:28:14;;;;;;;3.30;3.00;;;12.80;99.90;;;;;;5035921;28;20442;-79
2021/06/02 05:31:30;;;;;;;4.27;3.87;;;13.00;99.90;;;;;;5035847;28;20525;-79
2021/06/02 05:34:35;;;;;;;4.40;3.97;;;13.10;99.90;;;;;;5035776;28;20778;-79
2021/06/02 05:37:34;;;;;;;4.33;3.97;;;13.20;99.90;;;;;;5013128;28;20498;-79
2021/06/02 05:40:15;;;;;;;4.60;4.10;;;13.40;99.90;;;;;;5025150;28;20970;-79
2021/06/02 05:43:17;;;;;;;5.17;4.10;;;13.60;99.90;;;;;;5035728;28;20838;-79
2021/06/02 05:46:23;;;;;;;4.40;4.07;;;13.70;99.90;;;;;;5035217;28;20439;-79
2021/06/02 05:49:28;;;;;;;5.17;4.00;;;13.90;99.90;;;;;;5035278;28;20439;-79
2021/06/02 05:52:07;;;;;;;4.67;4.27;;;14.10;99.90;;;;;;5025230;28;20478;-79
2021/06/02 05:55:13;;;;;;;3.60;3.33;;;14.30;99.90;;;;;;5035501;28;20430;-79
2021/06/02 05:58:19;;;;;;;4.30;3.70;;;14.60;99.90;;;;;;5035324;28;20486;-79
2021/06/02 06:01:02;;;;;;;3.90;3.20;;;14.80;99.90;;;;;;5035361;28;20509;-79
2021/06/02 06:04:06;;;;;;;3.93;2.87;;;15.20;99.90;;;;;;5035028;28;20805;-79
2021/06/02 06:06:43;;;;;;;3.90;3.50;;;15.50;99.90;;;;;;5035163;28;20450;-79
2021/06/02 06:09:43;;;;;;;3.10;2.80;;;15.90;99.90;;;;;;5035552;28;20778;-79
2021/06/02 06:12:47;;;;;;;2.80;2.60;;;16.30;99.90;;;;;;5034816;28;20837;-79
2021/06/02 06:15:52;;;;;;;2.70;2.50;;;16.70;97.20;;;;;;5034907;28;20491;-79
2021/06/02 06:19:15;;;;;;;3.77;2.87;;;17.30;94.30;;;;;;5034987;28;20445;-79
2021/06/02 06:22:16;;;;;;;2.70;2.07;;;18.10;89.60;;;;;;5035000;28;20470;-79
2021/06/02 06:24:48;;;;;;;2.80;2.23;;;18.90;87.30;;;;;;5034956;28;20430;-80
2021/06/02 06:27:21;;;;;;;2.10;2.00;;;19.50;85.00;;;;;;5035096;28;20441;-83
2021/06/02 06:29:57;;;;;;;2.30;2.20;;;20.40;82.10;;;;;;5034577;28;20180;-80
2021/06/02 06:32:27;;;;;;;4.60;1.88;;;21.40;75.50;;;;;;5034840;28;20194;-80
2021/06/02 06:34:54;;;;;;;2.30;2.20;;;22.40;70.10;;;;;;5034696;28;20647;-80
2021/06/02 06:37:22;;;;;;;2.10;2.00;;;23.10;64.60;;;;;;5218252;22;20229;-85
2021/06/02 06:39:51;;;;;;;2.22;2.08;;;23.70;61.80;;;;;;5055455;28;20683;-86
2021/06/02 06:42:22;;;;;;;2.40;2.15;;;24.30;57.80;;;;;;5055482;28;20255;-83
2021/06/02 06:44:53;;;;;;;2.20;2.10;;;24.60;57.00;;;;;;5055089;28;20232;-85
2021/06/02 06:47:21;;;;;;;2.10;2.00;;;25.20;54.90;;;;;;5055335;28;20184;-86
2021/06/02 06:49:53;;;;;;;2.05;1.85;;;25.60;54.40;;;;;;5055137;28;20189;-85
2021/06/02 06:52:22;;;;;;;2.58;1.88;;;26.00;53.20;;;;;;5054868;28;20222;-85
2021/06/02 06:54:49;;;;;;;2.30;2.00;;;26.70;50.70;;;;;;5054855;28;20217;-85
2021/06/02 06:57:19;;;;;;;2.13;2.03;;;27.20;49.20;;;;;;5054829;28;20284;-85
2021/06/02 06:59:45;;;;;;;2.15;2.05;;;27.40;47.80;;;;;;5054773;28;20203;-85
2021/06/02 07:02:12;;;;;;;1.83;1.73;;;27.50;46.80;;;;;;5054673;28;20236;-84
2021/06/02 07:04:39;;;;;;;1.85;1.75;;;27.80;42.80;;;;;;5054822;28;20217;-85
2021/06/02 07:07:08;;;;;;;3.17;1.92;;;28.00;43.70;;;;;;5054858;28;20296;-85
2021/06/02 07:09:34;;;;;;;1.33;1.33;;;28.30;43.30;;;;;;5054630;28;20342;-85
2021/06/02 07:12:01;;;;;;;1.70;1.60;;;28.60;43.10;;;;;;5054778;28;20238;-85
2021/06/02 07:14:29;;;;;;;1.90;1.80;;;29.10;41.90;;;;;;5054601;28;20203;-86
2021/06/02 07:16:57;;;;;;;1.77;1.67;;;29.70;41.50;;;;;;5054433;28;20226;-85
2021/06/02 07:19:25;;;;;;;1.75;1.65;;;30.30;40.00;;;;;;5054190;28;20215;-85
2021/06/02 07:21:52;;;;;;;1.63;1.52;;;30.80;38.40;;;;;;5054447;28;20226;-85
2021/06/02 07:24:20;;;;;;;2.10;2.00;;;31.00;38.80;;;;;;5054525;28;20206;-85
2021/06/02 07:26:47;;;;;;;2.53;2.42;;;31.10;39.70;;;;;;5054509;28;20199;-86
2021/06/02 07:29:13;;;;;;;2.65;2.05;;;31.60;38.60;;;;;;5054283;28;20611;-86
2021/06/02 07:31:40;;;;;;;2.47;2.28;;;32.20;37.30;;;;;;5054183;28;20234;-85
2021/06/02 07:34:06;;;;;;;2.47;2.28;;;33.10;36.40;;;;;;5053967;28;20203;-86
2021/06/02 07:36:33;;;;;;;2.47;2.28;;;33.60;35.90;;;;;;5053968;28;20249;-85
2021/06/02 07:38:59;;;;;;;2.38;2.28;;;33.80;35.30;;;;;;5053938;28;20235;-85
2021/06/02 07:41:27;;;;;;;2.63;2.53;;;34.50;34.90;;;;;;5053926;28;20272;-84
2021/06/02 07:43:53;;;;;;;1.92;1.60;;;35.20;34.70;;;;;;5054197;28;20199;-85
2021/06/02 07:46:21;;;;;;;1.75;1.75;;;35.50;34.70;;;;;;5054062;28;20199;-87
2021/06/02 07:48:48;;;;;;;2.15;2.10;;;35.80;33.80;;;;;;5054014;28;20269;-86
2021/06/02 07:51:14;;;;;;;2.42;2.33;;;36.00;33.50;;;;;;5056699;28;20566;-86
2021/06/02 07:53:41;;;;;;;1.88;1.88;;;36.10;33.00;;;;;;5062043;28;20213;-86
2021/06/02 07:56:07;;;;;;;2.90;2.70;;;36.40;33.20;;;;;;5058600;28;20218;-86
2021/06/02 07:58:35;;;;;;;2.25;2.15;;;37.00;32.20;;;;;;5059636;28;20203;-83
2021/06/02 08:01:01;;;;;;;10.15;2.78;;;37.60;31.50;;;;;;5054804;28;20230;-85
2021/06/02 08:03:27;;;;;;;3.28;2.13;;;38.40;30.30;;;;;;5053481;28;20214;-85
2021/06/02 08:05:53;;;;;;;2.13;2.03;;;38.90;29.90;;;;;;5053608;28;20544;-85
2021/06/02 08:08:20;;;;;;;2.40;2.30;;;39.00;29.90;;;;;;5053286;28;20214;-83
2021/06/02 08:10:47;;;;;;;2.47;2.25;;;39.50;29.80;;;;;;5055928;28;20223;-82
2021/06/02 08:13:14;;;;;;;2.28;2.17;;;39.70;29.00;;;;;;5057562;28;20546;-85
2021/06/02 08:15:41;;;;;;;3.17;2.38;;;39.50;29.10;;;;;;5057618;28;20592;-86
2021/06/02 08:18:08;;;;;;;2.85;2.28;;;39.40;29.20;;;;;;5057421;28;20609;-85
2021/06/02 08:20:34;;;;;;;2.00;1.90;;;39.10;28.70;;;;;;5057226;28;20314;-86
2021/06/02 08:23:00;;;;;;;1.85;1.75;;;38.50;28.70;;;;;;5057299;28;20210;-85
2021/06/02 08:25:27;;;;;;;2.35;2.17;;;38.40;28.80;;;;;;5057004;28;20537;-85
2021/06/02 08:27:53;;;;;;;2.10;2.10;;;38.50;29.10;;;;;;5057095;28;20195;-85
2021/06/02 08:30:20;;;;;;;2.08;1.98;;;38.80;28.50;;;;;;5056955;28;20215;-85
2021/06/02 08:32:47;;;;;;;2.60;2.50;;;38.80;29.00;;;;;;5057184;28;20179;-83
2021/06/02 08:35:16;;;;;;;2.67;2.58;;;38.80;28.40;;;;;;5056872;28;20549;-85
2021/06/02 08:37:42;;;;;;;2.28;2.08;;;38.90;27.60;;;;;;5057020;28;20241;-84
2021/06/02 08:40:10;;;;;;;2.22;2.08;;;38.60;27.30;;;;;;5056994;28;20203;-85
2021/06/02 08:42:39;;;;;;;2.38;2.28;;;38.20;27.90;;;;;;5056689;28;20191;-84
2021/06/02 08:45:08;;;;;;;2.50;2.40;;;37.70;28.50;;;;;;5056693;28;20291;-84
2021/06/02 08:47:37;;;;;;;5.97;2.10;;;36.80;28.60;;;;;;5056967;28;20187;-84
2021/06/02 08:50:08;;;;;;;2.97;2.72;;;36.10;29.20;;;;;;5056742;28;20241;-84
2021/06/02 08:52:36;;;;;;;1.80;1.70;;;35.30;30.20;;;;;;5057557;28;20186;-84
2021/06/02 08:55:05;;;;;;;1.95;1.95;;;34.80;29.50;;;;;;5056878;28;20193;-85
2021/06/02 08:57:32;;;;;;;2.20;2.00;;;34.40;31.50;;;;;;5056301;28;20280;-84
2021/06/02 08:59:59;;;;;;;1.80;1.70;;;34.00;29.50;;;;;;5056695;28;20187;-83
2021/06/02 09:02:26;;;;;;;2.65;2.45;;;33.30;29.60;;;;;;5056371;28;20644;-83
2021/06/02 09:04:54;;;;;;;2.13;2.03;;;32.30;29.80;;;;;;5056697;28;20676;-84
2021/06/02 09:07:24;;;;;;;1.90;1.65;;;31.30;31.80;;;;;;5057329;28;20675;-84
2021/06/02 09:09:57;;;;;;;2.20;2.10;;;30.40;33.00;;;;;;5056740;28;20197;-85
2021/06/02 09:12:32;;;;;;;2.30;2.10;;;29.80;32.70;;;;;;5056980;28;20226;-84
2021/06/02 09:15:06;;;;;;;2.20;1.85;;;29.40;35.10;;;;;;5056872;28;20254;-84
2021/06/02 09:17:46;;;;;;;2.22;2.13;;;29.20;35.50;;;;;;5056804;28;20619;-84
2021/06/02 09:20:34;;;;;;;2.10;1.90;;;28.80;36.10;;;;;;5056662;28;20194;-84
2021/06/02 09:23:27;;;;;;;2.83;1.70;;;28.50;36.40;;;;;;5056781;28;20190;-84
2021/06/02 09:26:16;;;;;;;2.15;2.03;;;28.40;39.00;;;;;;5056620;28;20618;-83
2021/06/02 09:28:47;;;;;;;2.25;2.10;;;28.40;37.00;;;;;;5056483;28;20210;-83
2021/06/02 09:31:30;;;;;;;2.10;1.90;;;28.30;36.00;;;;;;5056492;28;20223;-83
2021/06/02 09:34:04;;;;;;;2.58;2.47;;;28.40;35.30;;;;;;5056762;28;20206;-83
2021/06/02 09:36:33;;;;;;;2.20;2.10;;;28.40;36.20;;;;;;5055859;28;20214;-82
2021/06/02 09:39:03;;;;;;;2.30;2.20;;;28.40;35.90;;;;;;5055965;28;20230;-83
2021/06/02 09:41:38;;;;;;;2.30;2.20;;;28.20;36.70;;;;;;5056358;28;20285;-82
2021/06/02 09:44:13;;;;;;;2.65;2.33;;;27.90;38.50;;;;;;5055890;28;20634;-81
2021/06/02 09:46:59;;;;;;;2.45;2.35;;;27.70;36.80;;;;;;5056003;28;20650;-82
2021/06/02 09:49:26;;;;;;;2.25;2.15;;;27.40;38.10;;;;;;5055935;28;20198;-82
2021/06/02 09:51:53;;;;;;;2.47;2.28;;;27.30;38.00;;;;;;5056127;28;20225;-82
2021/06/02 09:54:23;;;;;;;1.95;1.85;;;27.10;39.00;;;;;;5056076;28;20187;-82
2021/06/02 09:56:57;;;;;;;2.13;2.03;;;27.00;39.40;;;;;;5056061;28;20211;-82
2021/06/02 09:59:25;;;;;;;2.85;1.83;;;27.10;39.20;;;;;;5056197;28;20186;-82
2021/06/02 10:01:55;;;;;;;1.95;1.85;;;27.10;36.90;;;;;;5055349;28;20702;-82
2021/06/02 10:04:34;;;;;;;2.10;2.00;;;27.30;38.30;;;;;;5055542;28;20187;-82
2021/06/02 10:07:04;;;;;;;2.05;1.95;;;27.60;38.50;;;;;;5055542;28;20203;-82
2021/06/02 10:09:34;;;;;;;1.83;1.73;;;27.80;37.10;;;;;;5055881;28;20212;-81
2021/06/02 10:12:05;;;;;;;1.95;1.85;;;27.90;36.10;;;;;;5056799;28;20234;-82
2021/06/02 10:14:32;;;;;;;1.95;1.85;;;28.10;37.90;;;;;;5056231;28;20270;-81
2021/06/02 10:16:59;;;;;;;1.80;1.70;;;28.30;37.50;;;;;;5056240;28;20214;-81
2021/06/02 10:19:42;;;;;;;2.25;2.05;;;28.30;36.10;;;;;;5056108;28;20183;-81
2021/06/02 10:22:24;;;;;;;2.15;2.05;;;28.00;35.20;;;;;;5055436;28;20574;-82
2021/06/02 10:24:54;;;;;;;1.83;1.70;;;27.90;37.20;;;;;;5056052;28;20596;-82
2021/06/02 10:27:23;;;;;;;2.40;2.28;;;27.80;37.10;;;;;;5055551;28;20180;-82
2021/06/02 10:29:50;;;;;;;2.03;1.90;;;27.70;36.50;;;;;;5055026;28;20237;-81
2021/06/02 10:32:25;;;;;;;1.85;1.75;;;27.70;37.10;;;;;;5055040;28;20230;-82
2021/06/02 10:34:52;;;;;;;3.97;1.95;;;27.70;36.40;;;;;;5056312;28;20632;-83
2021/06/02 10:37:20;;;;;;;2.05;1.95;;;27.60;36.60;;;;;;5055011;28;20236;-81
2021/06/02 10:39:56;;;;;;;1.90;1.85;;;27.60;37.20;;;;;;5055297;28;20195;-82
2021/06/02 10:42:30;;;;;;;1.77;1.60;;;27.60;38.30;;;;;;5055016;28;20260;-82
2021/06/02 10:45:03;;;;;;;2.42;2.33;;;27.60;38.60;;;;;;5054845;28;20190;-82
2021/06/02 10:47:30;;;;;;;1.80;1.67;;;27.60;38.70;;;;;;5055210;28;20237;-82
2021/06/02 10:49:56;;;;;;;2.00;1.90;;;27.50;37.90;;;;;;5054706;28;20187;-82
2021/06/02 10:52:36;;;;;;;8.52;2.30;;;27.70;38.20;;;;;;5054501;28;20696;-82
2021/06/02 10:55:38;;;;;;;2.55;2.30;;;27.70;38.10;;;;;;5054642;28;20692;-82
2021/06/02 10:58:26;;;;;;;2.13;2.03;;;27.80;37.60;;;;;;5049424;28;20222;-81
2021/06/02 11:01:18;;;;;;;1.95;1.85;;;27.90;37.10;;;;;;5054661;28;20229;-81
2021/06/02 11:03:46;;;;;;;1.95;1.67;;;28.20;36.20;;;;;;5055529;28;20282;-85
2021/06/02 11:06:33;;;;;;;1.60;1.50;;;28.20;35.80;;;;;;5055950;28;20604;-83
2021/06/02 11:09:16;;;;;;;2.00;1.90;;;28.00;37.20;;;;;;5055939;28;20187;-83
2021/06/02 11:12:07;;;;;;;1.85;1.75;;;27.90;35.60;;;;;;5058121;28;20222;-84
2021/06/02 11:14:35;;;;;;;1.80;1.70;;;27.70;37.10;;;;;;5055943;28;20667;-85
2021/06/02 11:17:18;;;;;;;1.98;1.88;;;27.60;37.40;;;;;;5054844;28;20716;-85
2021/06/02 11:19:52;;;;;;;1.50;1.50;;;27.50;36.70;;;;;;5055629;28;20205;-85
2021/06/02 11:22:21;;;;;;;1.70;1.58;;;27.40;37.30;;;;;;5054937;28;20321;-85
2021/06/02 11:24:53;;;;;;;1.80;1.70;;;27.30;36.60;;;;;;5054893;28;20187;-85
2021/06/02 11:27:40;;;;;;;2.05;1.83;;;27.20;37.20;;;;;;5054403;28;20638;-86
2021/06/02 11:30:10;;;;;;;1.80;1.70;;;26.90;37.90;;;;;;5054851;28;20627;-86
2021/06/02 11:33:02;;;;;;;2.13;2.03;;;26.80;38.70;;;;;;5054440;28;20233;-85
2021/06/02 11:36:09;;;;;;;1.77;1.67;;;26.90;39.20;;;;;;5041675;28;20670;-84
2021/06/02 11:38:37;;;;;;;2.42;1.77;;;26.90;38.00;;;;;;5054162;28;20705;-84
2021/06/02 11:41:04;;;;;;;1.85;1.75;;;26.80;39.20;;;;;;5054239;28;20305;-84
2021/06/02 11:43:31;;;;;;;1.83;1.50;;;26.80;39.00;;;;;;5054609;28;20278;-84
2021/06/02 11:46:00;;;;;;;1.80;1.70;;;26.70;38.60;;;;;;5054174;28;20179;-87
2021/06/02 11:48:37;;;;;;;1.40;1.30;;;26.70;38.10;;;;;;5054857;28;20194;-85
2021/06/02 11:51:09;;;;;;;2.20;2.00;;;26.60;38.70;;;;;;5054622;28;20218;-84
2021/06/02 11:53:43;;;;;;;2.15;1.95;;;26.60;38.70;;;;;;5055198;28;20222;-85
2021/06/02 11:56:09;;;;;;;1.83;1.73;;;26.50;39.50;;;;;;5054233;28;20336;-84
2021/06/02 11:58:36;;;;;;;2.08;1.98;;;26.40;40.60;;;;;;5054535;28;20191;-85
2021/06/02 12:01:04;;;;;;;1.58;1.50;;;26.40;40.70;;;;;;5054370;28;20284;-85
2021/06/02 12:03:30;;;;;;;1.77;1.67;;;26.40;41.20;;;;;;5054283;28;20183;-84
2021/06/02 12:05:57;;;;;;;1.95;1.85;;;26.50;41.30;;;;;;5053917;28;20206;-84
2021/06/02 12:08:23;;;;;;;2.00;1.50;;;26.50;40.00;;;;;;5054164;28;20202;-85
2021/06/02 12:10:51;;;;;;;1.77;1.67;;;26.40;39.40;;;;;;5053900;28;20660;-86
2021/06/02 12:13:19;;;;;;;1.88;1.77;;;26.40;39.20;;;;;;5054203;28;20202;-85
2021/06/02 12:15:48;;;;;;;1.98;1.40;;;26.40;39.90;;;;;;5054344;28;20194;-84
2021/06/02 12:18:30;;;;;;;1.40;1.40;;;26.40;40.40;;;;;;5054099;28;20222;-84
2021/06/02 12:21:11;;;;;;;1.60;1.50;;;26.40;40.60;;;;;;5054090;28;20276;-85
2021/06/02 12:23:50;;;;;;;3.45;1.90;;;26.30;40.40;;;;;;5055977;28;20234;-84
2021/06/02 12:26:30;;;;;;;2.45;1.90;;;26.20;40.80;;;;;;5054666;28;20213;-87
2021/06/02 12:28:59;;;;;;;2.15;1.45;;;26.20;40.30;;;;;;5053944;28;20205;-84
2021/06/02 12:31:36;;;;;;;1.50;1.38;;;26.00;40.10;;;;;;5053981;28;20223;-82
2021/06/02 12:34:07;;;;;;;1.58;1.48;;;25.90;40.70;;;;;;5054388;28;20217;-84
2021/06/02 12:36:33;;;;;;;1.77;1.67;;;25.90;41.20;;;;;;5053641;28;20333;-85
2021/06/02 12:39:08;;;;;;;1.77;1.67;;;25.80;40.30;;;;;;5053942;28;20330;-85
2021/06/02 12:41:35;;;;;;;1.67;1.58;;;25.70;42.00;;;;;;5053833;28;20233;-84
2021/06/02 12:44:03;;;;;;;1.73;1.63;;;25.60;42.30;;;;;;5053814;28;20679;-85
2021/06/02 12:46:29;;;;;;;1.63;1.52;;;25.50;41.90;;;;;;5053905;28;20191;-84
2021/06/02 12:48:57;;;;;;;1.73;1.63;;;25.50;41.10;;;;;;5053490;28;20639;-86
2021/06/02 12:51:27;;;;;;;2.08;1.98;;;25.50;41.30;;;;;;5053193;28;20714;-84
2021/06/02 12:53:53;;;;;;;1.80;1.70;;;25.50;42.10;;;;;;5053966;28;20203;-85
2021/06/02 12:56:21;;;;;;;1.80;1.67;;;25.40;41.70;;;;;;5054755;28;20529;-81
2021/06/02 12:58:52;;;;;;;1.60;1.50;;;25.40;42.10;;;;;;5058143;28;20183;-84
2021/06/02 13:01:19;;;;;;;2.25;1.90;;;25.40;42.40;;;;;;5057489;28;20210;-85
2021/06/02 13:03:48;;;;;;;1.63;1.52;;;25.40;41.30;;;;;;5057749;28;20584;-84
2021/06/02 13:06:18;;;;;;;2.55;2.05;;;25.40;41.60;;;;;;5057284;28;20203;-85
2021/06/02 13:08:46;;;;;;;2.20;2.10;;;25.30;42.30;;;;;;5057297;28;20297;-88
2021/06/02 13:11:16;;;;;;;2.00;1.80;;;25.30;42.00;;;;;;5056966;28;20215;-84
2021/06/02 13:13:48;;;;;;;3.35;2.63;;;25.30;41.10;;;;;;5057170;28;20219;-85
2021/06/02 13:16:14;;;;;;;2.20;2.08;;;25.20;41.30;;;;;;5057191;28;20597;-84
2021/06/02 13:18:40;;;;;;;2.33;2.22;;;25.20;41.20;;;;;;5056978;28;20687;-84
2021/06/02 13:21:12;;;;;;;2.30;2.20;;;25.10;42.00;;;;;;5056818;28;20268;-84
2021/06/02 13:23:38;;;;;;;3.13;2.92;;;25.10;42.10;;;;;;5056602;28;20740;-85
2021/06/02 13:26:07;;;;;;;2.47;2.28;;;25.20;40.90;;;;;;5057293;28;20203;-87
2021/06/02 13:28:42;;;;;;;2.38;2.28;;;25.20;40.70;;;;;;5057000;28;20202;-84
2021/06/02 13:31:09;;;;;;;2.20;2.10;;;25.30;40.30;;;;;;5056588;28;20222;-83
2021/06/02 13:33:41;;;;;;;2.70;2.60;;;25.20;40.50;;;;;;5056902;28;20569;-87